sensor_id;sensor_type;location;lat;lon;timestamp;P1;durP1;ratioP1;P2;durP2;ratioP2
25045;SDS011;13044;49.304;12.840;2022-12-05T00:01:23;17.80;;;11.00;;
25045;SDS011;13044;49.304;12.840;2022-12-05T00:04:12;23.13;;;12.82;;
25045;SDS011;13044;49.304;12.840;2022-12-05T00:06:40;16.52;;;9.80;;
25045;SDS011;13044;49.304;12.840;2022-12-05T00:09:08;16.20;;;9.80;;
25045;SDS011;13044;49.304;12.840;2022-12-05T00:11:38;24.88;;;13.23;;
25045;SDS011;13044;49.304;12.840;2022-12-05T00:14:08;25.02;;;14.18;;
25045;SDS011;13044;49.304;12.840;2022-12-05T00:16:37;18.40;;;9.60;;
25045;SDS011;13044;49.304;12.840;2022-12-05T00:19:07;18.23;;;10.50;;
25045;SDS011;13044;49.304;12.840;2022-12-05T00:21:37;20.95;;;13.32;;
25045;SDS011;13044;49.304;12.840;2022-12-05T00:24:05;23.08;;;12.60;;
25045;SDS011;13044;49.304;12.840;2022-12-05T00:26:36;18.10;;;9.68;;
25045;SDS011;13044;49.304;12.840;2022-12-05T00:29:02;17.55;;;9.60;;
25045;SDS011;13044;49.304;12.840;2022-12-05T00:31:29;17.08;;;9.63;;
25045;SDS011;13044;49.304;12.840;2022-12-05T00:33:58;14.90;;;8.07;;
25045;SDS011;13044;49.304;12.840;2022-12-05T00:36:28;19.33;;;10.85;;
25045;SDS011;13044;49.304;12.840;2022-12-05T00:38:57;19.60;;;11.02;;
25045;SDS011;13044;49.304;12.840;2022-12-05T00:41:26;27.25;;;14.40;;
25045;SDS011;13044;49.304;12.840;2022-12-05T00:43:54;24.60;;;13.27;;
25045;SDS011;13044;49.304;12.840;2022-12-05T00:46:24;14.88;;;8.90;;
25045;SDS011;13044;49.304;12.840;2022-12-05T00:48:54;18.55;;;10.45;;
25045;SDS011;13044;49.304;12.840;2022-12-05T00:51:23;22.15;;;12.85;;
25045;SDS011;13044;49.304;12.840;2022-12-05T00:53:59;23.55;;;13.88;;
25045;SDS011;13044;49.304;12.840;2022-12-05T00:56:28;21.55;;;11.57;;
25045;SDS011;13044;49.304;12.840;2022-12-05T00:58:57;21.13;;;11.18;;
25045;SDS011;13044;49.304;12.840;2022-12-05T01:04:01;22.63;;;11.43;;
25045;SDS011;13044;49.304;12.840;2022-12-05T01:06:31;16.33;;;8.88;;
25045;SDS011;13044;49.304;12.840;2022-12-05T01:08:59;12.63;;;7.20;;
25045;SDS011;13044;49.304;12.840;2022-12-05T01:11:26;19.42;;;10.45;;
25045;SDS011;13044;49.304;12.840;2022-12-05T01:13:54;20.45;;;11.38;;
25045;SDS011;13044;49.304;12.840;2022-12-05T01:16:29;20.92;;;10.98;;
25045;SDS011;13044;49.304;12.840;2022-12-05T01:19:00;23.50;;;12.23;;
25045;SDS011;13044;49.304;12.840;2022-12-05T01:21:48;18.20;;;9.90;;
25045;SDS011;13044;49.304;12.840;2022-12-05T01:24:15;16.08;;;8.98;;
25045;SDS011;13044;49.304;12.840;2022-12-05T01:26:44;16.00;;;9.23;;
25045;SDS011;13044;49.304;12.840;2022-12-05T01:29:13;15.82;;;10.13;;
25045;SDS011;13044;49.304;12.840;2022-12-05T01:31:43;19.70;;;10.05;;
25045;SDS011;13044;49.304;12.840;2022-12-05T01:34:12;19.00;;;9.63;;
25045;SDS011;13044;49.304;12.840;2022-12-05T01:36:41;18.98;;;10.15;;
25045;SDS011;13044;49.304;12.840;2022-12-05T01:39:09;22.38;;;11.18;;
25045;SDS011;13044;49.304;12.840;2022-12-05T01:41:41;23.73;;;12.98;;
25045;SDS011;13044;49.304;12.840;2022-12-05T01:46:39;17.67;;;9.90;;
25045;SDS011;13044;49.304;12.840;2022-12-05T01:49:15;16.95;;;8.43;;
25045;SDS011;13044;49.304;12.840;2022-12-05T01:52:02;20.00;;;9.52;;
25045;SDS011;13044;49.304;12.840;2022-12-05T01:54:34;14.88;;;8.60;;
25045;SDS011;13044;49.304;12.840;2022-12-05T01:57:03;12.73;;;7.32;;
25045;SDS011;13044;49.304;12.840;2022-12-05T01:59:37;20.83;;;11.38;;
25045;SDS011;13044;49.304;12.840;2022-12-05T02:02:10;24.88;;;11.95;;
25045;SDS011;13044;49.304;12.840;2022-12-05T02:04:47;26.30;;;13.05;;
25045;SDS011;13044;49.304;12.840;2022-12-05T02:07:21;25.38;;;13.82;;
25045;SDS011;13044;49.304;12.840;2022-12-05T02:09:48;20.73;;;10.15;;
25045;SDS011;13044;49.304;12.840;2022-12-05T02:12:17;21.95;;;12.52;;
25045;SDS011;13044;49.304;12.840;2022-12-05T02:14:52;16.17;;;8.82;;
25045;SDS011;13044;49.304;12.840;2022-12-05T02:24:34;21.73;;;11.32;;
25045;SDS011;13044;49.304;12.840;2022-12-05T02:27:42;18.08;;;9.35;;
25045;SDS011;13044;49.304;12.840;2022-12-05T02:30:25;17.98;;;9.48;;
25045;SDS011;13044;49.304;12.840;2022-12-05T02:35:59;23.45;;;11.70;;
25045;SDS011;13044;49.304;12.840;2022-12-05T02:44:35;24.33;;;11.37;;
25045;SDS011;13044;49.304;12.840;2022-12-05T02:47:13;21.42;;;10.75;;
25045;SDS011;13044;49.304;12.840;2022-12-05T02:49:44;23.77;;;10.70;;
25045;SDS011;13044;49.304;12.840;2022-12-05T02:52:12;29.33;;;12.73;;
25045;SDS011;13044;49.304;12.840;2022-12-05T02:54:43;28.05;;;12.73;;
25045;SDS011;13044;49.304;12.840;2022-12-05T02:57:13;21.85;;;11.90;;
25045;SDS011;13044;49.304;12.840;2022-12-05T02:59:42;20.48;;;10.45;;
25045;SDS011;13044;49.304;12.840;2022-12-05T03:02:19;20.05;;;10.25;;
25045;SDS011;13044;49.304;12.840;2022-12-05T03:04:54;27.35;;;12.77;;
25045;SDS011;13044;49.304;12.840;2022-12-05T03:07:43;24.25;;;13.25;;
25045;SDS011;13044;49.304;12.840;2022-12-05T03:10:14;28.15;;;12.55;;
25045;SDS011;13044;49.304;12.840;2022-12-05T03:12:46;16.13;;;8.75;;
25045;SDS011;13044;49.304;12.840;2022-12-05T03:15:21;22.17;;;12.48;;
25045;SDS011;13044;49.304;12.840;2022-12-05T03:18:07;20.13;;;10.70;;
25045;SDS011;13044;49.304;12.840;2022-12-05T03:20:51;27.10;;;14.45;;
25045;SDS011;13044;49.304;12.840;2022-12-05T03:23:30;22.40;;;11.57;;
25045;SDS011;13044;49.304;12.840;2022-12-05T03:26:09;28.88;;;13.23;;
25045;SDS011;13044;49.304;12.840;2022-12-05T03:34:30;19.05;;;11.20;;
25045;SDS011;13044;49.304;12.840;2022-12-05T03:37:12;24.42;;;13.32;;
25045;SDS011;13044;49.304;12.840;2022-12-05T03:39:53;21.70;;;11.70;;
25045;SDS011;13044;49.304;12.840;2022-12-05T03:43:09;21.33;;;11.65;;
25045;SDS011;13044;49.304;12.840;2022-12-05T03:45:54;21.35;;;10.98;;
25045;SDS011;13044;49.304;12.840;2022-12-05T03:51:22;15.85;;;8.85;;
25045;SDS011;13044;49.304;12.840;2022-12-05T03:53:57;12.20;;;7.40;;
25045;SDS011;13044;49.304;12.840;2022-12-05T03:56:32;23.48;;;12.95;;
25045;SDS011;13044;49.304;12.840;2022-12-05T03:59:13;24.35;;;12.82;;
25045;SDS011;13044;49.304;12.840;2022-12-05T04:01:50;21.50;;;11.88;;
25045;SDS011;13044;49.304;12.840;2022-12-05T04:04:24;28.35;;;14.75;;
25045;SDS011;13044;49.304;12.840;2022-12-05T04:07:00;24.15;;;13.32;;
25045;SDS011;13044;49.304;12.840;2022-12-05T04:09:36;25.42;;;13.50;;
25045;SDS011;13044;49.304;12.840;2022-12-05T04:12:21;21.42;;;12.57;;
25045;SDS011;13044;49.304;12.840;2022-12-05T04:14:54;24.95;;;13.35;;
25045;SDS011;13044;49.304;12.840;2022-12-05T04:17:36;19.63;;;11.10;;
25045;SDS011;13044;49.304;12.840;2022-12-05T04:20:20;26.10;;;13.30;;
25045;SDS011;13044;49.304;12.840;2022-12-05T04:23:18;21.33;;;12.35;;
25045;SDS011;13044;49.304;12.840;2022-12-05T04:25:58;24.27;;;13.27;;
25045;SDS011;13044;49.304;12.840;2022-12-05T04:28:56;24.35;;;13.45;;
25045;SDS011;13044;49.304;12.840;2022-12-05T04:31:33;23.20;;;12.25;;
25045;SDS011;13044;49.304;12.840;2022-12-05T04:34:08;21.83;;;11.48;;
25045;SDS011;13044;49.304;12.840;2022-12-05T04:36:41;24.90;;;12.82;;
25045;SDS011;13044;49.304;12.840;2022-12-05T04:39:20;23.20;;;12.07;;
25045;SDS011;13044;49.304;12.840;2022-12-05T04:42:05;23.83;;;13.65;;
25045;SDS011;13044;49.304;12.840;2022-12-05T04:44:37;22.48;;;11.48;;
25045;SDS011;13044;49.304;12.840;2022-12-05T04:47:18;23.48;;;12.32;;
25045;SDS011;13044;49.304;12.840;2022-12-05T04:49:49;21.88;;;11.75;;
25045;SDS011;13044;49.304;12.840;2022-12-05T04:52:19;19.30;;;10.48;;
25045;SDS011;13044;49.304;12.840;2022-12-05T04:54:52;19.67;;;11.02;;
25045;SDS011;13044;49.304;12.840;2022-12-05T04:57:28;21.48;;;10.85;;
25045;SDS011;13044;49.304;12.840;2022-12-05T05:00:13;16.67;;;9.63;;
25045;SDS011;13044;49.304;12.840;2022-12-05T05:02:45;19.25;;;10.07;;
25045;SDS011;13044;49.304;12.840;2022-12-05T05:05:20;17.13;;;9.55;;
25045;SDS011;13044;49.304;12.840;2022-12-05T05:07:52;16.15;;;8.93;;
25045;SDS011;13044;49.304;12.840;2022-12-05T05:10:26;14.15;;;8.52;;
25045;SDS011;13044;49.304;12.840;2022-12-05T05:13:05;17.00;;;9.48;;
25045;SDS011;13044;49.304;12.840;2022-12-05T05:15:31;15.05;;;9.20;;
25045;SDS011;13044;49.304;12.840;2022-12-05T05:17:58;13.07;;;7.55;;
25045;SDS011;13044;49.304;12.840;2022-12-05T05:20:25;15.57;;;8.40;;
25045;SDS011;13044;49.304;12.840;2022-12-05T05:22:56;14.38;;;8.13;;
25045;SDS011;13044;49.304;12.840;2022-12-05T05:25:23;14.00;;;7.60;;
25045;SDS011;13044;49.304;12.840;2022-12-05T05:27:52;15.35;;;8.52;;
25045;SDS011;13044;49.304;12.840;2022-12-05T05:30:21;13.77;;;8.73;;
25045;SDS011;13044;49.304;12.840;2022-12-05T05:32:50;15.48;;;8.48;;
25045;SDS011;13044;49.304;12.840;2022-12-05T05:35:17;14.40;;;8.02;;
25045;SDS011;13044;49.304;12.840;2022-12-05T05:37:45;14.88;;;9.05;;
25045;SDS011;13044;49.304;12.840;2022-12-05T05:40:12;13.68;;;8.20;;
25045;SDS011;13044;49.304;12.840;2022-12-05T05:42:43;13.95;;;8.32;;
25045;SDS011;13044;49.304;12.840;2022-12-05T05:45:16;12.05;;;7.25;;
25045;SDS011;13044;49.304;12.840;2022-12-05T05:47:43;11.15;;;6.75;;
25045;SDS011;13044;49.304;12.840;2022-12-05T05:50:10;12.02;;;7.75;;
25045;SDS011;13044;49.304;12.840;2022-12-05T05:52:46;12.50;;;6.80;;
25045;SDS011;13044;49.304;12.840;2022-12-05T05:55:12;13.52;;;7.35;;
25045;SDS011;13044;49.304;12.840;2022-12-05T05:57:39;9.77;;;6.28;;
25045;SDS011;13044;49.304;12.840;2022-12-05T06:00:06;11.57;;;7.38;;
25045;SDS011;13044;49.304;12.840;2022-12-05T06:02:34;9.98;;;5.97;;
25045;SDS011;13044;49.304;12.840;2022-12-05T06:05:02;10.10;;;5.25;;
25045;SDS011;13044;49.304;12.840;2022-12-05T06:07:30;11.27;;;6.47;;
25045;SDS011;13044;49.304;12.840;2022-12-05T06:09:57;10.35;;;6.63;;
25045;SDS011;13044;49.304;12.840;2022-12-05T06:12:24;10.45;;;5.90;;
25045;SDS011;13044;49.304;12.840;2022-12-05T06:14:51;10.98;;;6.13;;
25045;SDS011;13044;49.304;12.840;2022-12-05T06:17:18;10.07;;;5.63;;
25045;SDS011;13044;49.304;12.840;2022-12-05T06:19:45;9.05;;;6.25;;
25045;SDS011;13044;49.304;12.840;2022-12-05T06:22:12;10.88;;;6.35;;
25045;SDS011;13044;49.304;12.840;2022-12-05T06:24:39;11.82;;;6.63;;
25045;SDS011;13044;49.304;12.840;2022-12-05T06:27:05;10.27;;;6.53;;
25045;SDS011;13044;49.304;12.840;2022-12-05T06:29:32;12.32;;;6.75;;
25045;SDS011;13044;49.304;12.840;2022-12-05T06:32:00;8.90;;;5.95;;
25045;SDS011;13044;49.304;12.840;2022-12-05T06:34:28;10.57;;;6.38;;
25045;SDS011;13044;49.304;12.840;2022-12-05T06:36:55;11.70;;;6.82;;
25045;SDS011;13044;49.304;12.840;2022-12-05T06:39:21;11.73;;;6.60;;
25045;SDS011;13044;49.304;12.840;2022-12-05T06:41:48;11.18;;;6.72;;
25045;SDS011;13044;49.304;12.840;2022-12-05T06:44:15;9.60;;;6.40;;
25045;SDS011;13044;49.304;12.840;2022-12-05T06:46:42;11.13;;;7.35;;
25045;SDS011;13044;49.304;12.840;2022-12-05T06:49:09;9.38;;;6.45;;
25045;SDS011;13044;49.304;12.840;2022-12-05T06:51:36;9.98;;;6.47;;
25045;SDS011;13044;49.304;12.840;2022-12-05T06:54:03;9.85;;;5.53;;
25045;SDS011;13044;49.304;12.840;2022-12-05T06:56:30;12.80;;;6.57;;
25045;SDS011;13044;49.304;12.840;2022-12-05T06:58:56;12.05;;;7.50;;
25045;SDS011;13044;49.304;12.840;2022-12-05T07:01:23;27.58;;;11.40;;
25045;SDS011;13044;49.304;12.840;2022-12-05T07:04:05;18.70;;;10.65;;
25045;SDS011;13044;49.304;12.840;2022-12-05T07:06:33;18.02;;;10.30;;
25045;SDS011;13044;49.304;12.840;2022-12-05T07:09:00;14.25;;;9.32;;
25045;SDS011;13044;49.304;12.840;2022-12-05T07:11:27;14.02;;;9.00;;
25045;SDS011;13044;49.304;12.840;2022-12-05T07:13:54;13.77;;;9.45;;
25045;SDS011;13044;49.304;12.840;2022-12-05T07:16:21;13.88;;;9.55;;
25045;SDS011;13044;49.304;12.840;2022-12-05T07:18:48;13.63;;;8.60;;
25045;SDS011;13044;49.304;12.840;2022-12-05T07:21:15;11.35;;;7.78;;
25045;SDS011;13044;49.304;12.840;2022-12-05T07:23:44;11.95;;;8.27;;
25045;SDS011;13044;49.304;12.840;2022-12-05T07:26:15;13.68;;;8.57;;
25045;SDS011;13044;49.304;12.840;2022-12-05T07:28:45;13.80;;;8.95;;
25045;SDS011;13044;49.304;12.840;2022-12-05T07:31:14;12.55;;;8.73;;
25045;SDS011;13044;49.304;12.840;2022-12-05T07:33:48;12.57;;;8.65;;
25045;SDS011;13044;49.304;12.840;2022-12-05T07:36:16;13.02;;;8.68;;
25045;SDS011;13044;49.304;12.840;2022-12-05T07:38:46;13.48;;;8.40;;
25045;SDS011;13044;49.304;12.840;2022-12-05T07:41:20;11.90;;;8.27;;
25045;SDS011;13044;49.304;12.840;2022-12-05T07:43:54;12.55;;;7.53;;
25045;SDS011;13044;49.304;12.840;2022-12-05T07:46:23;11.77;;;8.68;;
25045;SDS011;13044;49.304;12.840;2022-12-05T07:48:52;11.48;;;7.78;;
25045;SDS011;13044;49.304;12.840;2022-12-05T07:51:19;15.18;;;8.82;;
25045;SDS011;13044;49.304;12.840;2022-12-05T07:53:47;12.25;;;7.70;;
25045;SDS011;13044;49.304;12.840;2022-12-05T07:56:15;13.95;;;8.60;;
25045;SDS011;13044;49.304;12.840;2022-12-05T07:58:44;11.85;;;8.02;;
25045;SDS011;13044;49.304;12.840;2022-12-05T08:03:46;12.50;;;8.95;;
25045;SDS011;13044;49.304;12.840;2022-12-05T08:06:14;10.90;;;7.47;;
25045;SDS011;13044;49.304;12.840;2022-12-05T08:08:44;12.95;;;8.95;;
25045;SDS011;13044;49.304;12.840;2022-12-05T08:11:15;13.05;;;8.35;;
25045;SDS011;13044;49.304;12.840;2022-12-05T08:14:02;15.90;;;8.88;;
25045;SDS011;13044;49.304;12.840;2022-12-05T08:16:31;13.05;;;8.60;;
25045;SDS011;13044;49.304;12.840;2022-12-05T08:18:59;17.50;;;8.30;;
25045;SDS011;13044;49.304;12.840;2022-12-05T08:21:32;14.48;;;8.57;;
25045;SDS011;13044;49.304;12.840;2022-12-05T08:23:59;14.90;;;8.80;;
25045;SDS011;13044;49.304;12.840;2022-12-05T08:26:30;14.00;;;8.15;;
25045;SDS011;13044;49.304;12.840;2022-12-05T08:29:08;15.70;;;9.93;;
25045;SDS011;13044;49.304;12.840;2022-12-05T08:31:42;15.98;;;9.77;;
25045;SDS011;13044;49.304;12.840;2022-12-05T08:34:15;14.07;;;9.23;;
25045;SDS011;13044;49.304;12.840;2022-12-05T08:36:43;14.32;;;8.18;;
25045;SDS011;13044;49.304;12.840;2022-12-05T08:39:12;16.10;;;9.98;;
25045;SDS011;13044;49.304;12.840;2022-12-05T08:41:42;13.30;;;8.50;;
25045;SDS011;13044;49.304;12.840;2022-12-05T08:44:11;16.63;;;9.75;;
25045;SDS011;13044;49.304;12.840;2022-12-05T08:46:44;13.73;;;8.60;;
25045;SDS011;13044;49.304;12.840;2022-12-05T08:49:14;13.93;;;8.77;;
25045;SDS011;13044;49.304;12.840;2022-12-05T08:51:42;12.68;;;8.60;;
25045;SDS011;13044;49.304;12.840;2022-12-05T08:54:09;13.23;;;8.55;;
25045;SDS011;13044;49.304;12.840;2022-12-05T08:56:36;17.30;;;9.65;;
25045;SDS011;13044;49.304;12.840;2022-12-05T08:59:04;12.80;;;8.18;;
25045;SDS011;13044;49.304;12.840;2022-12-05T09:01:31;15.65;;;9.25;;
25045;SDS011;13044;49.304;12.840;2022-12-05T09:04:03;14.57;;;9.20;;
25045;SDS011;13044;49.304;12.840;2022-12-05T09:06:31;14.70;;;8.52;;
25045;SDS011;13044;49.304;12.840;2022-12-05T09:09:00;16.98;;;9.23;;
25045;SDS011;13044;49.304;12.840;2022-12-05T09:11:33;18.88;;;9.23;;
25045;SDS011;13044;49.304;12.840;2022-12-05T09:14:03;16.70;;;9.23;;
25045;SDS011;13044;49.304;12.840;2022-12-05T09:16:32;18.85;;;9.68;;
25045;SDS011;13044;49.304;12.840;2022-12-05T09:19:04;16.23;;;9.43;;
25045;SDS011;13044;49.304;12.840;2022-12-05T09:21:36;15.35;;;9.30;;
25045;SDS011;13044;49.304;12.840;2022-12-05T09:24:03;14.40;;;8.13;;
25045;SDS011;13044;49.304;12.840;2022-12-05T09:26:31;13.40;;;7.80;;
25045;SDS011;13044;49.304;12.840;2022-12-05T09:28:57;18.15;;;9.40;;
25045;SDS011;13044;49.304;12.840;2022-12-05T09:31:25;14.63;;;9.20;;
25045;SDS011;13044;49.304;12.840;2022-12-05T09:33:52;17.52;;;9.52;;
25045;SDS011;13044;49.304;12.840;2022-12-05T09:36:21;16.25;;;9.60;;
25045;SDS011;13044;49.304;12.840;2022-12-05T09:38:50;15.25;;;9.20;;
25045;SDS011;13044;49.304;12.840;2022-12-05T09:47:56;21.35;;;13.50;;
25045;SDS011;13044;49.304;12.840;2022-12-05T09:53:29;15.83;;;8.00;;
25045;SDS011;13044;49.304;12.840;2022-12-05T09:58:48;20.88;;;12.25;;
25045;SDS011;13044;49.304;12.840;2022-12-05T10:15:37;17.27;;;9.70;;
25045;SDS011;13044;49.304;12.840;2022-12-05T10:21:01;17.48;;;10.88;;
25045;SDS011;13044;49.304;12.840;2022-12-05T10:23:41;17.17;;;9.63;;
25045;SDS011;13044;49.304;12.840;2022-12-05T10:26:39;14.57;;;9.38;;
25045;SDS011;13044;49.304;12.840;2022-12-05T10:32:04;17.52;;;9.32;;
25045;SDS011;13044;49.304;12.840;2022-12-05T10:34:41;15.15;;;8.93;;
25045;SDS011;13044;49.304;12.840;2022-12-05T10:37:17;13.63;;;7.72;;
25045;SDS011;13044;49.304;12.840;2022-12-05T10:39:46;15.10;;;8.98;;
25045;SDS011;13044;49.304;12.840;2022-12-05T10:42:20;15.73;;;9.27;;
25045;SDS011;13044;49.304;12.840;2022-12-05T10:44:54;16.30;;;9.68;;
25045;SDS011;13044;49.304;12.840;2022-12-05T10:47:25;19.05;;;9.50;;
25045;SDS011;13044;49.304;12.840;2022-12-05T10:49:52;13.35;;;7.97;;
25045;SDS011;13044;49.304;12.840;2022-12-05T10:52:21;17.27;;;9.32;;
25045;SDS011;13044;49.304;12.840;2022-12-05T10:54:50;20.08;;;10.15;;
25045;SDS011;13044;49.304;12.840;2022-12-05T10:57:25;15.82;;;8.70;;
25045;SDS011;13044;49.304;12.840;2022-12-05T10:59:56;17.65;;;9.15;;
25045;SDS011;13044;49.304;12.840;2022-12-05T11:04:56;15.35;;;8.80;;
25045;SDS011;13044;49.304;12.840;2022-12-05T11:07:35;17.50;;;10.82;;
25045;SDS011;13044;49.304;12.840;2022-12-05T11:10:29;15.75;;;10.27;;
25045;SDS011;13044;49.304;12.840;2022-12-05T11:13:00;15.63;;;9.27;;
25045;SDS011;13044;49.304;12.840;2022-12-05T11:15:43;13.07;;;8.25;;
25045;SDS011;13044;49.304;12.840;2022-12-05T11:20:50;15.77;;;8.82;;
25045;SDS011;13044;49.304;12.840;2022-12-05T11:23:25;16.80;;;9.30;;
25045;SDS011;13044;49.304;12.840;2022-12-05T11:25:55;15.15;;;8.45;;
25045;SDS011;13044;49.304;12.840;2022-12-05T11:28:28;14.90;;;9.18;;
25045;SDS011;13044;49.304;12.840;2022-12-05T11:33:41;17.48;;;10.07;;
25045;SDS011;13044;49.304;12.840;2022-12-05T11:36:13;16.83;;;9.18;;
25045;SDS011;13044;49.304;12.840;2022-12-05T11:38:47;17.23;;;11.38;;
25045;SDS011;13044;49.304;12.840;2022-12-05T11:49:27;11.75;;;6.30;;
25045;SDS011;13044;49.304;12.840;2022-12-05T11:52:21;13.40;;;8.55;;
25045;SDS011;13044;49.304;12.840;2022-12-05T11:55:37;22.17;;;11.98;;
25045;SDS011;13044;49.304;12.840;2022-12-05T12:01:18;15.32;;;8.65;;
25045;SDS011;13044;49.304;12.840;2022-12-05T12:16:16;14.23;;;8.88;;
25045;SDS011;13044;49.304;12.840;2022-12-05T12:22:29;13.65;;;8.88;;
25045;SDS011;13044;49.304;12.840;2022-12-05T12:25:44;15.88;;;8.52;;
25045;SDS011;13044;49.304;12.840;2022-12-05T12:43:19;14.65;;;9.45;;
25045;SDS011;13044;49.304;12.840;2022-12-05T12:51:51;11.88;;;8.00;;
25045;SDS011;13044;49.304;12.840;2022-12-05T12:54:49;11.50;;;8.13;;
25045;SDS011;13044;49.304;12.840;2022-12-05T12:57:57;13.93;;;8.15;;
25045;SDS011;13044;49.304;12.840;2022-12-05T13:03:33;10.50;;;6.63;;
25045;SDS011;13044;49.304;12.840;2022-12-05T13:08:54;12.35;;;7.57;;
25045;SDS011;13044;49.304;12.840;2022-12-05T13:11:26;12.80;;;7.53;;
25045;SDS011;13044;49.304;12.840;2022-12-05T13:14:01;13.60;;;7.45;;
25045;SDS011;13044;49.304;12.840;2022-12-05T13:16:31;11.95;;;7.25;;
25045;SDS011;13044;49.304;12.840;2022-12-05T13:19:15;12.50;;;7.70;;
25045;SDS011;13044;49.304;12.840;2022-12-05T13:21:52;12.95;;;7.85;;
25045;SDS011;13044;49.304;12.840;2022-12-05T13:24:24;14.27;;;8.95;;
25045;SDS011;13044;49.304;12.840;2022-12-05T13:26:55;13.05;;;8.05;;
25045;SDS011;13044;49.304;12.840;2022-12-05T13:29:58;13.68;;;8.60;;
25045;SDS011;13044;49.304;12.840;2022-12-05T13:32:29;14.52;;;8.30;;
25045;SDS011;13044;49.304;12.840;2022-12-05T13:34:58;12.35;;;7.38;;
25045;SDS011;13044;49.304;12.840;2022-12-05T13:37:35;13.77;;;9.10;;
25045;SDS011;13044;49.304;12.840;2022-12-05T13:40:29;12.68;;;7.60;;
25045;SDS011;13044;49.304;12.840;2022-12-05T13:43:18;15.88;;;9.02;;
25045;SDS011;13044;49.304;12.840;2022-12-05T13:46:01;15.43;;;9.02;;
25045;SDS011;13044;49.304;12.840;2022-12-05T13:48:42;13.20;;;8.43;;
25045;SDS011;13044;49.304;12.840;2022-12-05T13:51:34;16.45;;;9.40;;
25045;SDS011;13044;49.304;12.840;2022-12-05T13:54:03;15.00;;;9.32;;
25045;SDS011;13044;49.304;12.840;2022-12-05T13:56:49;20.00;;;10.20;;
25045;SDS011;13044;49.304;12.840;2022-12-05T14:03:01;16.42;;;9.88;;
25045;SDS011;13044;49.304;12.840;2022-12-05T14:05:40;17.95;;;10.10;;
25045;SDS011;13044;49.304;12.840;2022-12-05T14:11:17;21.25;;;10.63;;
25045;SDS011;13044;49.304;12.840;2022-12-05T14:13:44;19.48;;;10.43;;
25045;SDS011;13044;49.304;12.840;2022-12-05T14:24:37;19.42;;;12.38;;
25045;SDS011;13044;49.304;12.840;2022-12-05T14:30:22;15.43;;;9.18;;
25045;SDS011;13044;49.304;12.840;2022-12-05T14:33:25;15.02;;;8.82;;
25045;SDS011;13044;49.304;12.840;2022-12-05T14:35:52;18.13;;;10.43;;
25045;SDS011;13044;49.304;12.840;2022-12-05T14:38:25;17.30;;;10.27;;
25045;SDS011;13044;49.304;12.840;2022-12-05T14:41:11;13.50;;;8.98;;
25045;SDS011;13044;49.304;12.840;2022-12-05T14:43:52;16.00;;;9.13;;
25045;SDS011;13044;49.304;12.840;2022-12-05T14:46:25;18.00;;;10.32;;
25045;SDS011;13044;49.304;12.840;2022-12-05T14:48:55;15.60;;;8.57;;
25045;SDS011;13044;49.304;12.840;2022-12-05T14:54:05;14.38;;;8.70;;
25045;SDS011;13044;49.304;12.840;2022-12-05T14:56:40;16.80;;;8.80;;
25045;SDS011;13044;49.304;12.840;2022-12-05T14:59:27;16.60;;;8.65;;
25045;SDS011;13044;49.304;12.840;2022-12-05T15:01:59;14.13;;;8.70;;
25045;SDS011;13044;49.304;12.840;2022-12-05T15:04:37;11.48;;;6.88;;
25045;SDS011;13044;49.304;12.840;2022-12-05T15:07:16;14.02;;;7.97;;
25045;SDS011;13044;49.304;12.840;2022-12-05T15:09:59;11.60;;;6.75;;
25045;SDS011;13044;49.304;12.840;2022-12-05T15:12:58;15.98;;;7.68;;
25045;SDS011;13044;49.304;12.840;2022-12-05T15:18:17;11.27;;;7.32;;
25045;SDS011;13044;49.304;12.840;2022-12-05T15:21:20;13.75;;;8.55;;
25045;SDS011;13044;49.304;12.840;2022-12-05T15:24:12;16.55;;;9.55;;
25045;SDS011;13044;49.304;12.840;2022-12-05T15:31:52;15.88;;;9.55;;
25045;SDS011;13044;49.304;12.840;2022-12-05T15:34:34;13.90;;;8.43;;
25045;SDS011;13044;49.304;12.840;2022-12-05T15:40:11;14.88;;;9.40;;
25045;SDS011;13044;49.304;12.840;2022-12-05T15:42:43;16.00;;;10.00;;
25045;SDS011;13044;49.304;12.840;2022-12-05T15:45:25;16.73;;;10.32;;
25045;SDS011;13044;49.304;12.840;2022-12-05T15:50:35;12.48;;;8.15;;
25045;SDS011;13044;49.304;12.840;2022-12-05T15:53:14;18.20;;;10.77;;
25045;SDS011;13044;49.304;12.840;2022-12-05T15:58:49;16.20;;;9.70;;
25045;SDS011;13044;49.304;12.840;2022-12-05T16:01:30;15.95;;;10.25;;
25045;SDS011;13044;49.304;12.840;2022-12-05T16:04:11;15.02;;;9.13;;
25045;SDS011;13044;49.304;12.840;2022-12-05T16:07:00;11.05;;;6.90;;
25045;SDS011;13044;49.304;12.840;2022-12-05T16:09:37;14.93;;;9.38;;
25045;SDS011;13044;49.304;12.840;2022-12-05T16:12:23;13.20;;;7.90;;
25045;SDS011;13044;49.304;12.840;2022-12-05T16:15:26;13.75;;;8.18;;
25045;SDS011;13044;49.304;12.840;2022-12-05T16:17:54;15.40;;;9.30;;
25045;SDS011;13044;49.304;12.840;2022-12-05T16:22:59;19.73;;;10.23;;
25045;SDS011;13044;49.304;12.840;2022-12-05T16:25:44;21.83;;;12.07;;
25045;SDS011;13044;49.304;12.840;2022-12-05T16:28:15;22.70;;;12.20;;
25045;SDS011;13044;49.304;12.840;2022-12-05T16:30:57;20.20;;;11.45;;
25045;SDS011;13044;49.304;12.840;2022-12-05T16:33:27;20.75;;;12.88;;
25045;SDS011;13044;49.304;12.840;2022-12-05T16:35:55;18.23;;;10.38;;
25045;SDS011;13044;49.304;12.840;2022-12-05T16:38:34;13.85;;;9.35;;
25045;SDS011;13044;49.304;12.840;2022-12-05T16:41:05;17.92;;;10.10;;
25045;SDS011;13044;49.304;12.840;2022-12-05T16:48:37;19.25;;;11.35;;
25045;SDS011;13044;49.304;12.840;2022-12-05T16:51:52;19.17;;;12.00;;
25045;SDS011;13044;49.304;12.840;2022-12-05T16:54:25;24.73;;;13.07;;
25045;SDS011;13044;49.304;12.840;2022-12-05T16:56:52;19.63;;;12.40;;
25045;SDS011;13044;49.304;12.840;2022-12-05T16:59:23;21.25;;;12.68;;
25045;SDS011;13044;49.304;12.840;2022-12-05T17:01:59;21.25;;;12.30;;
25045;SDS011;13044;49.304;12.840;2022-12-05T17:04:28;20.30;;;11.85;;
25045;SDS011;13044;49.304;12.840;2022-12-05T17:06:55;19.23;;;10.80;;
25045;SDS011;13044;49.304;12.840;2022-12-05T17:09:23;22.85;;;12.05;;
25045;SDS011;13044;49.304;12.840;2022-12-05T17:11:52;20.52;;;11.43;;
25045;SDS011;13044;49.304;12.840;2022-12-05T17:14:29;26.42;;;14.77;;
25045;SDS011;13044;49.304;12.840;2022-12-05T17:16:56;26.05;;;14.50;;
25045;SDS011;13044;49.304;12.840;2022-12-05T17:19:25;22.05;;;11.63;;
25045;SDS011;13044;49.304;12.840;2022-12-05T17:21:56;20.02;;;11.95;;
25045;SDS011;13044;49.304;12.840;2022-12-05T17:24:23;21.35;;;10.85;;
25045;SDS011;13044;49.304;12.840;2022-12-05T17:26:53;19.15;;;12.00;;
25045;SDS011;13044;49.304;12.840;2022-12-05T17:29:20;16.27;;;10.73;;
25045;SDS011;13044;49.304;12.840;2022-12-05T17:31:47;23.00;;;12.05;;
25045;SDS011;13044;49.304;12.840;2022-12-05T17:34:15;19.67;;;12.70;;
25045;SDS011;13044;49.304;12.840;2022-12-05T17:36:43;21.02;;;12.02;;
25045;SDS011;13044;49.304;12.840;2022-12-05T17:39:10;20.15;;;12.57;;
25045;SDS011;13044;49.304;12.840;2022-12-05T17:41:37;21.20;;;12.52;;
25045;SDS011;13044;49.304;12.840;2022-12-05T17:44:04;15.02;;;9.25;;
25045;SDS011;13044;49.304;12.840;2022-12-05T17:46:31;14.45;;;7.88;;